KLRJ

Le Mars Municipal Airport

Le Mars, Iowa, USA
METAR KLRJ 201735Z AUTO 34011G23KT 310V020 10SM CLR 08/M03 A3035 RMK AO2
Observed Flight Rules
Oct-20 @ 17:35 UTC (23 minutes ago) Visual Flight Rules
Wind Visibility Clouds
340° at 11 knots
 Gusting to 23 knots
10 miles
  • Clear skies
Temperatures Readings
Current 8°C / 46°F
Dewpoint -3°C / 27°F
Humidity 46%
Altimeter 30.35" Hg
Pressure 1028 hPa
Elevation 365
METAR KLRJ 201735Z AUTO 34011G23KT 310V020 10SM CLR 08/M03 A3035 RMK AO2
Observed Flight Rules
Oct-20 @ 17:35 UTC
(23 minutes ago)
VFR
Wind Visibility
340° at 11 knots
 Gusting to 23 knots
10 miles
Clouds
  • Clear skies
Temperature Dewpoint
8°C / 46°F -3°C / 27°F
Humidity Altimeter Pressure
46% 30.35" Hg 1028 hPa